Meiou Maru — JD4206 — position and weather

sailwx.info

Track history (hours):
 
Tides and Currents Weather Stations Pressure Air Temp Water Temp Dewpoint Dewpoint Depression Visibility Wind Speed Wind Dir Waves Ship Positions

Meiou Maru

Last reported at 2018-Apr-25 10:38 UTC. Time now 2018-Apr-26 01:32 UTC.
Position N 34°25' E 130°54'.

Length 65 m; draft 4.5 m.

Type: Tanker. MMSI: 431009805.

Date/timePositionNaut miles runAvg speedWind from/ knotsBaromVisibWave heightAir tempDewpointWater temp
2018-Apr-25 10:38N 34°25' E 130°54'1 9.4
2018-Apr-25 10:30N 34°25' E 130°52'5 9.3
2018-Apr-25 09:59N 34°21' E 130°48'5 9.6
2018-Apr-25 09:27N 34°16' E 130°49'4 9.4
2018-Apr-25 09:00N 34°12' E 130°49'5 9.2
2018-Apr-25 08:30N 34°07' E 130°50'5 9.4
2018-Apr-25 08:00N 34°03' E 130°52'5 9.8
2018-Apr-25 07:30N 33°58' E 130°53'4 8.1
2018-Apr-25 07:01N 33°55' E 130°55'5 9.3
2018-Apr-25 06:30N 33°58' E 130°59'3 5.6
2018-Apr-25 06:00N 33°58' E 131°02'5 9.7
2018-Apr-25 05:31N 33°55' E 131°07'510.6
2018-Apr-25 05:00N 33°53' E 131°13'511.1
2018-Apr-25 04:30N 33°52' E 131°19'611.0
2018-Apr-25 04:00N 33°51' E 131°26'510.9
2018-Apr-25 03:30N 33°50' E 131°32'510.7
2018-Apr-25 03:00N 33°49' E 131°38'510.4
2018-Apr-25 02:30N 33°47' E 131°44'510.4
2018-Apr-25 02:00N 33°46' E 131°51'510.0
2018-Apr-25 01:30N 33°46' E 131°57'510.6
2018-Apr-25 00:59N 33°46' E 132°03'811.2
2018-Apr-25 00:16N 33°52' E 132°10'312.0
2018-Apr-24 23:58N 33°55' E 132°09'811.6
2018-Apr-24 23:19N 34°01' E 132°14'311.2
2018-Apr-24 23:00N 34°05' E 132°16'610.8
2018-Apr-24 22:30N 34°10' E 132°17'4 8.7
2018-Apr-24 22:00N 34°13' E 132°14'0 0.0
2018-Apr-24 21:30N 34°13' E 132°14'0 0.1
2018-Apr-24 21:00N 34°13' E 132°14'0 0.1
2018-Apr-24 20:30N 34°13' E 132°14'0 0.1
2018-Apr-24 20:00N 34°13' E 132°14'0 0.0
2018-Apr-24 19:30N 34°13' E 132°14'0 0.1
2018-Apr-24 19:00N 34°13' E 132°14'0 0.1
2018-Apr-24 18:30N 34°13' E 132°14'0 0.1
2018-Apr-24 18:00N 34°13' E 132°14'0 0.0
2018-Apr-24 17:30N 34°13' E 132°14'0 0.0
2018-Apr-24 17:00N 34°13' E 132°14'0 0.1
2018-Apr-24 16:30N 34°13' E 132°14'0 0.0
2018-Apr-24 16:00N 34°13' E 132°14'0 0.0
2018-Apr-24 15:30N 34°13' E 132°14'0 0.1
2018-Apr-24 15:00N 34°13' E 132°14'0 0.1
2018-Apr-24 14:30N 34°13' E 132°14'0 0.1
2018-Apr-24 14:00N 34°13' E 132°14'0 0.0
2018-Apr-24 13:30N 34°13' E 132°14'0 0.1
2018-Apr-24 13:00N 34°13' E 132°14'0 0.0
2018-Apr-24 12:30N 34°13' E 132°14'0 0.1
2018-Apr-24 12:00N 34°13' E 132°14'0 0.0
2018-Apr-24 11:30N 34°13' E 132°14'0 0.0
2018-Apr-24 11:00N 34°13' E 132°14'0 0.0
2018-Apr-24 10:29N 34°13' E 132°14'0 0.1
2018-Apr-24 10:00N 34°13' E 132°14'0 0.1
2018-Apr-24 09:30N 34°13' E 132°14'0 0.0
2018-Apr-24 09:00N 34°13' E 132°14'0 0.0
2018-Apr-24 08:30N 34°13' E 132°14'0 0.0
2018-Apr-24 08:00N 34°13' E 132°14'0 0.0
2018-Apr-24 07:30N 34°13' E 132°14'0 0.1
2018-Apr-24 07:00N 34°13' E 132°14'0 0.1
2018-Apr-24 06:30N 34°13' E 132°14'0 0.0
2018-Apr-24 06:00N 34°13' E 132°14'0 0.6
2018-Apr-24 05:30N 34°14' E 132°15'1 1.6
2018-Apr-24 05:00N 34°14' E 132°14'0 0.0
2018-Apr-24 04:30N 34°14' E 132°14'0 0.0
2018-Apr-24 04:00N 34°14' E 132°14'0 0.0
2018-Apr-24 03:30N 34°14' E 132°14'0 0.0
2018-Apr-24 02:59N 34°14' E 132°14'0 0.0
2018-Apr-24 02:30N 34°14' E 132°14'0 0.0
2018-Apr-24 02:00N 34°14' E 132°14'0 0.0
2018-Apr-24 01:30N 34°14' E 132°14'0 0.0
2018-Apr-24 01:00N 34°14' E 132°14'0 0.0
2018-Apr-24 00:30N 34°14' E 132°14'0 0.0
2018-Apr-24 00:00N 34°14' E 132°14'0 0.0
2018-Apr-23 23:30N 34°14' E 132°14'0 0.0
2018-Apr-23 23:00N 34°14' E 132°14'1 1.6
2018-Apr-23 22:29N 34°14' E 132°14'0 0.0
2018-Apr-23 22:00N 34°14' E 132°14'0 0.0
2018-Apr-23 21:30N 34°14' E 132°14'0 0.0
2018-Apr-23 21:00N 34°14' E 132°14'0 0.0
2018-Apr-23 20:30N 34°14' E 132°14'0 0.0
2018-Apr-23 20:00N 34°14' E 132°14'0 0.0
2018-Apr-23 19:30N 34°14' E 132°14'0 0.0
2018-Apr-23 19:00N 34°14' E 132°14'0 0.0
2018-Apr-23 18:29N 34°14' E 132°14'0 0.0
2018-Apr-23 18:00N 34°14' E 132°14'0 0.0
2018-Apr-23 17:30N 34°14' E 132°14'0 0.0
2018-Apr-23 17:00N 34°14' E 132°14'0 0.0
2018-Apr-23 16:30N 34°14' E 132°14'0 0.0
2018-Apr-23 16:00N 34°14' E 132°14'0 0.0
2018-Apr-23 15:30N 34°14' E 132°14'0 0.0
2018-Apr-23 15:00N 34°14' E 132°14'0 0.0
2018-Apr-23 14:30N 34°14' E 132°14'0 0.0
2018-Apr-23 14:00N 34°14' E 132°14'0 0.0
2018-Apr-23 13:30N 34°14' E 132°14'0 0.0
2018-Apr-23 13:00N 34°14' E 132°14'0 0.4
2018-Apr-23 12:29N 34°14' E 132°15'510.4
2018-Apr-23 12:00N 34°10' E 132°17'611.3
2018-Apr-23 11:30N 34°04' E 132°16'611.8
2018-Apr-23 10:58N 33°58' E 132°12'4 9.0
2018-Apr-23 10:30N 33°55' E 132°09'511.1
2018-Apr-23 10:00N 33°50' E 132°10'611.0
2018-Apr-23 09:30N 33°47' E 132°04'711.1
2018-Apr-23 08:55N 33°45' E 131°57'511.5
2018-Apr-23 08:30N 33°47' E 131°51'611.7
2018-Apr-23 08:00N 33°48' E 131°44'611.6
2018-Apr-23 07:30N 33°49' E 131°37'611.4
2018-Apr-23 07:00N 33°50' E 131°31'611.6
2018-Apr-23 06:30N 33°51' E 131°24'611.2
2018-Apr-23 06:00N 33°52' E 131°17'5 9.9
2018-Apr-23 05:30N 33°55' E 131°12'2 3.4
2018-Apr-23 05:00N 33°56' E 131°12'0 0.0
2018-Apr-23 04:30N 33°56' E 131°12'0 0.0
2018-Apr-23 04:00N 33°56' E 131°12'0 0.0
2018-Apr-23 03:30N 33°56' E 131°12'0 0.0
2018-Apr-23 03:00N 33°56' E 131°12'0 0.0
2018-Apr-23 02:30N 33°56' E 131°12'1 2.5
2018-Apr-23 02:00N 33°55' E 131°12'2 4.4
2018-Apr-23 01:30N 33°53' E 131°12'0 0.2
2018-Apr-23 01:00N 33°53' E 131°12'510.1
2018-Apr-23 00:30N 33°51' E 131°18'611.4
2018-Apr-23 00:00N 33°50' E 131°25'611.2
2018-Apr-22 23:30N 33°49' E 131°31'510.8
2018-Apr-22 23:00N 33°48' E 131°38'611.1
2018-Apr-22 22:29N 33°47' E 131°45'511.2
2018-Apr-22 22:00N 33°47' E 131°51'811.3
2018-Apr-22 21:17N 33°46' E 132°01'711.8
2018-Apr-22 20:43N 33°48' E 132°08'312.0
2018-Apr-22 20:30N 33°49' E 132°11'711.5
2018-Apr-22 19:53N 33°50' E 132°19'711.0
2018-Apr-22 19:15N 33°54' E 132°27'411.6
2018-Apr-22 18:56N 33°56' E 132°30'510.4
2018-Apr-22 18:29N 33°59' E 132°34'510.3
2018-Apr-22 18:00N 34°02' E 132°39'71 9.9
2018-Apr-22 10:53N 34°26' E 133°60'11 9.8
2018-Apr-22 09:45N 34°25' E 134°13'210.0
2018-Apr-22 09:30N 34°24' E 134°16'510.8
2018-Apr-22 09:00N 34°26' E 134°22'511.0
2018-Apr-22 08:30N 34°28' E 134°29'510.7
2018-Apr-22 08:00N 34°29' E 134°35'510.8
2018-Apr-22 07:30N 34°31' E 134°41'511.0
2018-Apr-22 07:00N 34°33' E 134°47'611.2
2018-Apr-22 06:30N 34°36' E 134°53'611.2
2018-Apr-22 06:00N 34°37' E 134°60'511.0
2018-Apr-22 05:31N 34°36' E 135°06'611.0
2018-Apr-22 05:00N 34°34' E 135°12'510.9
2018-Apr-22 04:31N 34°34' E 135°19'611.0
2018-Apr-22 04:00N 34°33' E 135°26'0 0.2
2018-Apr-22 03:30N 34°33' E 135°26'0 0.0
2018-Apr-22 03:00N 34°33' E 135°26'0 0.0
2018-Apr-22 02:30N 34°33' E 135°26'0 0.0
2018-Apr-22 02:00N 34°33' E 135°26'0 0.0
2018-Apr-22 01:30N 34°33' E 135°26'0 0.0
2018-Apr-22 01:00N 34°33' E 135°26'0 0.0
2018-Apr-22 00:30N 34°33' E 135°26'0 0.0
2018-Apr-22 00:00N 34°33' E 135°26'0 0.0
2018-Apr-21 23:30N 34°33' E 135°26'0 0.0
2018-Apr-21 23:00N 34°33' E 135°26'1 1.7
2018-Apr-21 22:30N 34°33' E 135°25'2 3.4
2018-Apr-21 22:00N 34°34' E 135°23'0 0.0
2018-Apr-21 21:30N 34°34' E 135°23'0 0.0
2018-Apr-21 21:00N 34°34' E 135°23'0 0.0
2018-Apr-21 20:30N 34°34' E 135°23'0 0.0
2018-Apr-21 20:00N 34°34' E 135°23'0 0.0
2018-Apr-21 19:30N 34°34' E 135°23'0 0.0
2018-Apr-21 19:00N 34°34' E 135°23'0 0.0
2018-Apr-21 18:30N 34°34' E 135°23'0 0.0
2018-Apr-21 17:59N 34°34' E 135°23'0 0.0
2018-Apr-21 17:30N 34°34' E 135°23'0 0.0
2018-Apr-21 17:00N 34°34' E 135°23'0 0.0
2018-Apr-21 16:30N 34°34' E 135°23'0 0.0
2018-Apr-21 16:00N 34°34' E 135°23'0 0.1
2018-Apr-21 15:30N 34°34' E 135°23'0 0.1
2018-Apr-21 15:00N 34°34' E 135°23'0 0.0
2018-Apr-21 14:30N 34°34' E 135°23'0 0.0
2018-Apr-21 14:00N 34°34' E 135°23'2 3.5
2018-Apr-21 13:30N 34°34' E 135°21'611.9
2018-Apr-21 13:01N 34°34' E 135°14'612.4
2018-Apr-21 12:30N 34°34' E 135°06'510.2
2018-Apr-21 12:00N 34°37' E 135°01'612.0
2018-Apr-21 11:30N 34°35' E 134°54'612.6
2018-Apr-21 11:00N 34°32' E 134°47'612.4
2018-Apr-21 10:30N 34°30' E 134°40'612.3
2018-Apr-21 10:00N 34°28' E 134°33'612.1
2018-Apr-21 09:30N 34°26' E 134°26'611.7
2018-Apr-21 09:00N 34°24' E 134°19'612.6
2018-Apr-21 08:30N 34°25' E 134°12'912.7
2018-Apr-21 07:45N 34°26' E 134°00'68 2.6
2018-Apr-20 05:16N 34°06' E 132°42'311.3
2018-Apr-20 05:01N 34°05' E 132°38'711.2
2018-Apr-20 04:26N 34°03' E 132°31'511.7
2018-Apr-20 03:59N 34°05' E 132°25'511.2
2018-Apr-20 03:30N 34°09' E 132°20'511.1
2018-Apr-20 03:00N 34°12' E 132°15'0 0.3
2018-Apr-20 02:30N 34°12' E 132°15'0 0.0
2018-Apr-20 02:00N 34°12' E 132°15'0 0.1
2018-Apr-20 01:30N 34°12' E 132°15'0 0.1
2018-Apr-20 01:01N 34°12' E 132°15'0 0.1
2018-Apr-20 00:30N 34°12' E 132°15'0 0.1
2018-Apr-20 00:00N 34°12' E 132°15'0 0.1
2018-Apr-19 23:30N 34°12' E 132°15'0 0.1
2018-Apr-19 23:00N 34°12' E 132°15'1 1.9
2018-Apr-19 22:30N 34°11' E 132°14'0 0.0
2018-Apr-19 21:59N 34°11' E 132°14'0 0.0
2018-Apr-19 21:30N 34°11' E 132°14'0 0.0
2018-Apr-19 21:00N 34°11' E 132°14'0 0.0
2018-Apr-19 20:30N 34°11' E 132°14'0 0.0
2018-Apr-19 20:00N 34°11' E 132°14'0 0.0
2018-Apr-19 19:30N 34°11' E 132°14'0 0.0
2018-Apr-19 19:00N 34°11' E 132°14'0 0.0
2018-Apr-19 18:30N 34°11' E 132°14'0 0.0
2018-Apr-19 17:58N 34°11' E 132°14'0 0.0
2018-Apr-19 17:31N 34°11' E 132°14'0 0.0
2018-Apr-19 16:59N 34°11' E 132°14'0 0.0
2018-Apr-19 16:30N 34°11' E 132°14'0 0.0
2018-Apr-19 16:00N 34°11' E 132°14'0 0.0
2018-Apr-19 15:30N 34°11' E 132°14'0 0.0
2018-Apr-19 15:00N 34°11' E 132°14'0 0.0
2018-Apr-19 14:29N 34°11' E 132°14'0 0.0
2018-Apr-19 14:00N 34°11' E 132°14'0 0.0
2018-Apr-19 13:30N 34°11' E 132°14'0 0.0
2018-Apr-19 13:00N 34°11' E 132°14'0 0.0
2018-Apr-19 12:30N 34°11' E 132°14'0 0.0
2018-Apr-19 11:58N 34°11' E 132°14'0 0.0
2018-Apr-19 11:30N 34°11' E 132°14'0 0.0
2018-Apr-19 11:00N 34°11' E 132°14'0 0.0
2018-Apr-19 10:30N 34°11' E 132°14'0 0.0
2018-Apr-19 10:00N 34°11' E 132°14'0 0.0
2018-Apr-19 09:30N 34°11' E 132°14'0 0.0
2018-Apr-19 09:00N 34°11' E 132°14'0 0.0
2018-Apr-19 08:30N 34°11' E 132°14'0 0.0
2018-Apr-19 08:00N 34°11' E 132°14'0 0.0
2018-Apr-19 07:30N 34°11' E 132°14'0 0.0
2018-Apr-19 07:00N 34°11' E 132°14'0 0.0
2018-Apr-19 06:30N 34°11' E 132°14'0 0.0
2018-Apr-19 05:59N 34°11' E 132°14'0 0.0
2018-Apr-19 05:31N 34°11' E 132°14'0 0.0
2018-Apr-19 04:59N 34°11' E 132°14'0 0.0
2018-Apr-19 04:29N 34°11' E 132°14'0 0.0
2018-Apr-19 03:58N 34°11' E 132°14'0 0.0
2018-Apr-19 03:30N 34°11' E 132°14'0 0.0
2018-Apr-19 03:00N 34°11' E 132°14'0 0.0
2018-Apr-19 02:30N 34°11' E 132°14'1 2.7
2018-Apr-19 02:00N 34°12' E 132°16'0 1.0
2018-Apr-19 01:30N 34°12' E 132°16'0 0.1
2018-Apr-19 01:00N 34°12' E 132°16'0 0.0
2018-Apr-19 00:30N 34°12' E 132°16'0 0.0
2018-Apr-19 00:01N 34°12' E 132°16'0 0.0
2018-Apr-18 23:30N 34°12' E 132°16'0 0.0
2018-Apr-18 22:59N 34°12' E 132°16'0 0.1
2018-Apr-18 22:30N 34°12' E 132°16'0 0.0
2018-Apr-18 22:00N 34°12' E 132°16'0 0.0
2018-Apr-18 21:30N 34°12' E 132°16'0 0.0
2018-Apr-18 21:00N 34°12' E 132°16'0 0.1
2018-Apr-18 20:30N 34°12' E 132°16'0 0.0
2018-Apr-18 19:59N 34°12' E 132°16'0 0.0
2018-Apr-18 19:30N 34°12' E 132°16'0 0.1
2018-Apr-18 19:00N 34°12' E 132°16'0 0.1
2018-Apr-18 18:30N 34°12' E 132°16'0 0.0
2018-Apr-18 18:00N 34°12' E 132°16'0 0.1
2018-Apr-18 17:30N 34°12' E 132°16'0 0.0
2018-Apr-18 17:00N 34°12' E 132°16'0 0.1
2018-Apr-18 16:30N 34°12' E 132°16'0 0.1
2018-Apr-18 16:00N 34°12' E 132°16'0 0.0
2018-Apr-18 15:30N 34°12' E 132°16'0 0.0
2018-Apr-18 15:01N 34°12' E 132°16'0 0.0
2018-Apr-18 14:30N 34°12' E 132°16'0 0.0
2018-Apr-18 14:00N 34°12' E 132°16'0 0.0
2018-Apr-18 13:30N 34°12' E 132°16'0 0.0
2018-Apr-18 13:00N 34°12' E 132°16'0 0.0
2018-Apr-18 12:30N 34°12' E 132°16'0 0.0
2018-Apr-18 12:00N 34°12' E 132°16'0 0.0
2018-Apr-18 11:30N 34°12' E 132°16'1 2.6
2018-Apr-18 11:01N 34°12' E 132°15'0 0.7
2018-Apr-18 10:30N 34°12' E 132°14'0 0.0
2018-Apr-18 10:00N 34°12' E 132°14'0 0.0
2018-Apr-18 09:30N 34°12' E 132°14'0 0.0
2018-Apr-18 08:58N 34°12' E 132°14'0 0.0
2018-Apr-18 08:27N 34°12' E 132°14'0 0.0
2018-Apr-18 07:59N 34°12' E 132°14'0 0.0
2018-Apr-18 07:30N 34°12' E 132°14'0 0.0
2018-Apr-18 07:00N 34°12' E 132°14'0 0.0
2018-Apr-18 06:29N 34°12' E 132°14'0 0.0
2018-Apr-18 06:00N 34°12' E 132°14'0 0.0
2018-Apr-18 05:30N 34°12' E 132°14'0 0.0
2018-Apr-18 05:00N 34°12' E 132°14'0 0.0
2018-Apr-18 04:30N 34°12' E 132°14'0 0.0
2018-Apr-18 04:00N 34°12' E 132°14'0 0.2
2018-Apr-18 03:31N 34°12' E 132°14'4 7.3
2018-Apr-18 03:00N 34°10' E 132°18'0 0.0
2018-Apr-18 02:30N 34°10' E 132°18'0 0.0
2018-Apr-18 02:00N 34°10' E 132°18'0 0.0
2018-Apr-18 01:30N 34°10' E 132°18'0 0.0
2018-Apr-18 01:00N 34°10' E 132°18'0 0.0
2018-Apr-18 00:30N 34°10' E 132°18'0 0.0
2018-Apr-18 00:00N 34°10' E 132°18'0 0.0
2018-Apr-17 23:29N 34°10' E 132°18'0 0.0
2018-Apr-17 23:00N 34°10' E 132°18'0 0.1
2018-Apr-17 22:30N 34°10' E 132°18'0 0.0
2018-Apr-17 22:00N 34°10' E 132°18'0 0.0
2018-Apr-17 21:29N 34°10' E 132°18'0 0.0
2018-Apr-17 21:00N 34°10' E 132°18'0 0.0
2018-Apr-17 20:30N 34°10' E 132°18'0 0.0
2018-Apr-17 19:59N 34°10' E 132°18'0 0.0
2018-Apr-17 19:29N 34°10' E 132°18'0 0.0
2018-Apr-17 19:00N 34°10' E 132°18'0 0.1
2018-Apr-17 18:29N 34°10' E 132°18'4 8.9
2018-Apr-17 18:00N 34°07' E 132°23'611.4
2018-Apr-17 17:29N 34°04' E 132°28'511.2
2018-Apr-17 17:00N 34°03' E 132°35'612.2
2018-Apr-17 16:30N 34°06' E 132°42'9110.2
2018-Apr-17 07:36N 34°19' E 134°30'111.4
2018-Apr-17 07:30N 34°18' E 134°31'611.1
2018-Apr-17 06:59N 34°16' E 134°37'4 8.8
2018-Apr-17 06:29N 34°12' E 134°40'5 8.3
2018-Apr-17 05:56N 34°08' E 134°43'4 9.7
2018-Apr-17 05:30N 34°05' E 134°47'510.0
2018-Apr-17 05:00N 34°01' E 134°51'510.0
2018-Apr-17 04:30N 33°58' E 134°55'5 9.9
2018-Apr-17 04:00N 33°54' E 134°59'5 9.5
2018-Apr-17 03:30N 33°51' E 135°03'165 9.6
2018-Apr-16 10:22N 34°32' E 138°15'2810.8
2018-Apr-16 07:49N 34°35' E 138°49'411.0
2018-Apr-16 07:27N 34°35' E 138°54'511.5
2018-Apr-16 07:00N 34°38' E 138°59'611.7
2018-Apr-16 06:28N 34°43' E 139°04'612.0
2018-Apr-16 05:55N 34°48' E 139°08'611.8
2018-Apr-16 05:25N 34°53' E 139°13'711.1
2018-Apr-16 04:49N 34°58' E 139°18'310.6
2018-Apr-16 04:30N 34°59' E 139°21'510.7
2018-Apr-16 04:00N 35°02' E 139°27'510.3
2018-Apr-16 03:30N 35°04' E 139°33'611.2
2018-Apr-16 03:00N 35°06' E 139°39'611.5
2018-Apr-16 02:29N 35°10' E 139°45'611.7
2018-Apr-16 02:00N 35°16' E 139°46'611.5
2018-Apr-16 01:30N 35°20' E 139°42'611.1
2018-Apr-16 01:00N 35°25' E 139°45'612.3
2018-Apr-16 00:30N 35°29' E 139°51'4 7.4
2018-Apr-16 00:00N 35°29' E 139°55'0 0.0
2018-Apr-15 23:30N 35°29' E 139°55'0 0.0
2018-Apr-15 23:00N 35°29' E 139°55'0 0.0
2018-Apr-15 22:30N 35°29' E 139°55'0 0.1
2018-Apr-15 22:00N 35°29' E 139°56'0 0.1
2018-Apr-15 21:30N 35°29' E 139°55'0 0.1
2018-Apr-15 21:00N 35°29' E 139°56'0 0.0
2018-Apr-15 20:28N 35°29' E 139°56'0 0.0
2018-Apr-15 20:00N 35°29' E 139°56'0 0.0
2018-Apr-15 19:30N 35°29' E 139°56'0 0.0
2018-Apr-15 18:59N 35°29' E 139°56'0 0.0
2018-Apr-15 18:30N 35°29' E 139°56'0 0.0
2018-Apr-15 18:00N 35°29' E 139°56'0 0.0
2018-Apr-15 17:30N 35°29' E 139°56'0 0.0
2018-Apr-15 17:00N 35°29' E 139°56'0 0.0
2018-Apr-15 16:30N 35°29' E 139°56'0 0.0
2018-Apr-15 16:00N 35°29' E 139°56'0 0.0
2018-Apr-15 15:30N 35°29' E 139°56'0 0.0
2018-Apr-15 15:01N 35°29' E 139°56'0 0.0
2018-Apr-15 14:30N 35°29' E 139°56'0 0.0
2018-Apr-15 14:00N 35°29' E 139°56'0 0.0
2018-Apr-15 13:30N 35°29' E 139°56'0 0.0
2018-Apr-15 13:00N 35°29' E 139°56'0 0.0
2018-Apr-15 12:30N 35°29' E 139°56'0 0.0
2018-Apr-15 12:00N 35°29' E 139°56'0 0.0
2018-Apr-15 11:30N 35°29' E 139°56'0 0.0
2018-Apr-15 11:00N 35°29' E 139°56'  
Track history (hours):
 
Tides and Currents Weather Stations Pressure Air Temp Water Temp Dewpoint Dewpoint Depression Visibility Wind Speed Wind Dir Waves Ship Positions

Meiou Maru

Last reported at 2018-Apr-25 10:38 UTC. Time now 2018-Apr-26 01:32 UTC.
Position N 34°25' E 130°54'.

Length 65 m; draft 4.5 m.

Type: Tanker. MMSI: 431009805.

Date/timePositionNaut miles runAvg speedWind from/ knotsBaromVisibWave heightAir tempDewpointWater temp
2018-Apr-25 10:38N 34°25' E 130°54'1 9.4
2018-Apr-25 10:30N 34°25' E 130°52'5 9.3
2018-Apr-25 09:59N 34°21' E 130°48'5 9.6
2018-Apr-25 09:27N 34°16' E 130°49'4 9.4
2018-Apr-25 09:00N 34°12' E 130°49'5 9.2
2018-Apr-25 08:30N 34°07' E 130°50'5 9.4
2018-Apr-25 08:00N 34°03' E 130°52'5 9.8
2018-Apr-25 07:30N 33°58' E 130°53'4 8.1
2018-Apr-25 07:01N 33°55' E 130°55'5 9.3
2018-Apr-25 06:30N 33°58' E 130°59'3 5.6
2018-Apr-25 06:00N 33°58' E 131°02'5 9.7
2018-Apr-25 05:31N 33°55' E 131°07'510.6
2018-Apr-25 05:00N 33°53' E 131°13'511.1
2018-Apr-25 04:30N 33°52' E 131°19'611.0
2018-Apr-25 04:00N 33°51' E 131°26'510.9
2018-Apr-25 03:30N 33°50' E 131°32'510.7
2018-Apr-25 03:00N 33°49' E 131°38'510.4
2018-Apr-25 02:30N 33°47' E 131°44'510.4
2018-Apr-25 02:00N 33°46' E 131°51'510.0
2018-Apr-25 01:30N 33°46' E 131°57'510.6
2018-Apr-25 00:59N 33°46' E 132°03'811.2
2018-Apr-25 00:16N 33°52' E 132°10'312.0
2018-Apr-24 23:58N 33°55' E 132°09'811.6
2018-Apr-24 23:19N 34°01' E 132°14'311.2
2018-Apr-24 23:00N 34°05' E 132°16'610.8
2018-Apr-24 22:30N 34°10' E 132°17'4 8.7
2018-Apr-24 22:00N 34°13' E 132°14'0 0.0
2018-Apr-24 21:30N 34°13' E 132°14'0 0.1
2018-Apr-24 21:00N 34°13' E 132°14'0 0.1
2018-Apr-24 20:30N 34°13' E 132°14'0 0.1
2018-Apr-24 20:00N 34°13' E 132°14'0 0.0
2018-Apr-24 19:30N 34°13' E 132°14'0 0.1
2018-Apr-24 19:00N 34°13' E 132°14'0 0.1
2018-Apr-24 18:30N 34°13' E 132°14'0 0.1
2018-Apr-24 18:00N 34°13' E 132°14'0 0.0
2018-Apr-24 17:30N 34°13' E 132°14'0 0.0
2018-Apr-24 17:00N 34°13' E 132°14'0 0.1
2018-Apr-24 16:30N 34°13' E 132°14'0 0.0
2018-Apr-24 16:00N 34°13' E 132°14'0 0.0
2018-Apr-24 15:30N 34°13' E 132°14'0 0.1
2018-Apr-24 15:00N 34°13' E 132°14'0 0.1
2018-Apr-24 14:30N 34°13' E 132°14'0 0.1
2018-Apr-24 14:00N 34°13' E 132°14'0 0.0
2018-Apr-24 13:30N 34°13' E 132°14'0 0.1
2018-Apr-24 13:00N 34°13' E 132°14'0 0.0
2018-Apr-24 12:30N 34°13' E 132°14'0 0.1
2018-Apr-24 12:00N 34°13' E 132°14'0 0.0
2018-Apr-24 11:30N 34°13' E 132°14'0 0.0
2018-Apr-24 11:00N 34°13' E 132°14'0 0.0
2018-Apr-24 10:29N 34°13' E 132°14'0 0.1
2018-Apr-24 10:00N 34°13' E 132°14'0 0.1
2018-Apr-24 09:30N 34°13' E 132°14'0 0.0
2018-Apr-24 09:00N 34°13' E 132°14'0 0.0
2018-Apr-24 08:30N 34°13' E 132°14'0 0.0
2018-Apr-24 08:00N 34°13' E 132°14'0 0.0
2018-Apr-24 07:30N 34°13' E 132°14'0 0.1
2018-Apr-24 07:00N 34°13' E 132°14'0 0.1
2018-Apr-24 06:30N 34°13' E 132°14'0 0.0
2018-Apr-24 06:00N 34°13' E 132°14'0 0.6
2018-Apr-24 05:30N 34°14' E 132°15'1 1.6
2018-Apr-24 05:00N 34°14' E 132°14'0 0.0
2018-Apr-24 04:30N 34°14' E 132°14'0 0.0
2018-Apr-24 04:00N 34°14' E 132°14'0 0.0
2018-Apr-24 03:30N 34°14' E 132°14'0 0.0
2018-Apr-24 02:59N 34°14' E 132°14'0 0.0
2018-Apr-24 02:30N 34°14' E 132°14'0 0.0
2018-Apr-24 02:00N 34°14' E 132°14'0 0.0
2018-Apr-24 01:30N 34°14' E 132°14'0 0.0
2018-Apr-24 01:00N 34°14' E 132°14'0 0.0
2018-Apr-24 00:30N 34°14' E 132°14'0 0.0
2018-Apr-24 00:00N 34°14' E 132°14'0 0.0
2018-Apr-23 23:30N 34°14' E 132°14'0 0.0
2018-Apr-23 23:00N 34°14' E 132°14'1 1.6
2018-Apr-23 22:29N 34°14' E 132°14'0 0.0
2018-Apr-23 22:00N 34°14' E 132°14'0 0.0
2018-Apr-23 21:30N 34°14' E 132°14'0 0.0
2018-Apr-23 21:00N 34°14' E 132°14'0 0.0
2018-Apr-23 20:30N 34°14' E 132°14'0 0.0
2018-Apr-23 20:00N 34°14' E 132°14'0 0.0
2018-Apr-23 19:30N 34°14' E 132°14'0 0.0
2018-Apr-23 19:00N 34°14' E 132°14'0 0.0
2018-Apr-23 18:29N 34°14' E 132°14'0 0.0
2018-Apr-23 18:00N 34°14' E 132°14'0 0.0
2018-Apr-23 17:30N 34°14' E 132°14'0 0.0
2018-Apr-23 17:00N 34°14' E 132°14'0 0.0
2018-Apr-23 16:30N 34°14' E 132°14'0 0.0
2018-Apr-23 16:00N 34°14' E 132°14'0 0.0
2018-Apr-23 15:30N 34°14' E 132°14'0 0.0
2018-Apr-23 15:00N 34°14' E 132°14'0 0.0
2018-Apr-23 14:30N 34°14' E 132°14'0 0.0
2018-Apr-23 14:00N 34°14' E 132°14'0 0.0
2018-Apr-23 13:30N 34°14' E 132°14'0 0.0
2018-Apr-23 13:00N 34°14' E 132°14'0 0.4
2018-Apr-23 12:29N 34°14' E 132°15'510.4
2018-Apr-23 12:00N 34°10' E 132°17'611.3
2018-Apr-23 11:30N 34°04' E 132°16'611.8
2018-Apr-23 10:58N 33°58' E 132°12'4 9.0
2018-Apr-23 10:30N 33°55' E 132°09'511.1
2018-Apr-23 10:00N 33°50' E 132°10'611.0
2018-Apr-23 09:30N 33°47' E 132°04'711.1
2018-Apr-23 08:55N 33°45' E 131°57'511.5
2018-Apr-23 08:30N 33°47' E 131°51'611.7
2018-Apr-23 08:00N 33°48' E 131°44'611.6
2018-Apr-23 07:30N 33°49' E 131°37'611.4
2018-Apr-23 07:00N 33°50' E 131°31'611.6
2018-Apr-23 06:30N 33°51' E 131°24'611.2
2018-Apr-23 06:00N 33°52' E 131°17'5 9.9
2018-Apr-23 05:30N 33°55' E 131°12'2 3.4
2018-Apr-23 05:00N 33°56' E 131°12'0 0.0
2018-Apr-23 04:30N 33°56' E 131°12'0 0.0
2018-Apr-23 04:00N 33°56' E 131°12'0 0.0
2018-Apr-23 03:30N 33°56' E 131°12'0 0.0
2018-Apr-23 03:00N 33°56' E 131°12'0 0.0
2018-Apr-23 02:30N 33°56' E 131°12'1 2.5
2018-Apr-23 02:00N 33°55' E 131°12'2 4.4
2018-Apr-23 01:30N 33°53' E 131°12'0 0.2
2018-Apr-23 01:00N 33°53' E 131°12'510.1
2018-Apr-23 00:30N 33°51' E 131°18'611.4
2018-Apr-23 00:00N 33°50' E 131°25'611.2
2018-Apr-22 23:30N 33°49' E 131°31'510.8
2018-Apr-22 23:00N 33°48' E 131°38'611.1
2018-Apr-22 22:29N 33°47' E 131°45'511.2
2018-Apr-22 22:00N 33°47' E 131°51'811.3
2018-Apr-22 21:17N 33°46' E 132°01'711.8
2018-Apr-22 20:43N 33°48' E 132°08'312.0
2018-Apr-22 20:30N 33°49' E 132°11'711.5
2018-Apr-22 19:53N 33°50' E 132°19'711.0
2018-Apr-22 19:15N 33°54' E 132°27'411.6
2018-Apr-22 18:56N 33°56' E 132°30'510.4
2018-Apr-22 18:29N 33°59' E 132°34'510.3
2018-Apr-22 18:00N 34°02' E 132°39'71 9.9
2018-Apr-22 10:53N 34°26' E 133°60'11 9.8
2018-Apr-22 09:45N 34°25' E 134°13'210.0
2018-Apr-22 09:30N 34°24' E 134°16'510.8
2018-Apr-22 09:00N 34°26' E 134°22'511.0
2018-Apr-22 08:30N 34°28' E 134°29'510.7
2018-Apr-22 08:00N 34°29' E 134°35'510.8
2018-Apr-22 07:30N 34°31' E 134°41'511.0
2018-Apr-22 07:00N 34°33' E 134°47'611.2
2018-Apr-22 06:30N 34°36' E 134°53'611.2
2018-Apr-22 06:00N 34°37' E 134°60'511.0
2018-Apr-22 05:31N 34°36' E 135°06'611.0
2018-Apr-22 05:00N 34°34' E 135°12'510.9
2018-Apr-22 04:31N 34°34' E 135°19'611.0
2018-Apr-22 04:00N 34°33' E 135°26'0 0.2
2018-Apr-22 03:30N 34°33' E 135°26'0 0.0
2018-Apr-22 03:00N 34°33' E 135°26'0 0.0
2018-Apr-22 02:30N 34°33' E 135°26'0 0.0
2018-Apr-22 02:00N 34°33' E 135°26'0 0.0
2018-Apr-22 01:30N 34°33' E 135°26'0 0.0
2018-Apr-22 01:00N 34°33' E 135°26'0 0.0
2018-Apr-22 00:30N 34°33' E 135°26'0 0.0
2018-Apr-22 00:00N 34°33' E 135°26'0 0.0
2018-Apr-21 23:30N 34°33' E 135°26'0 0.0
2018-Apr-21 23:00N 34°33' E 135°26'1 1.7
2018-Apr-21 22:30N 34°33' E 135°25'2 3.4
2018-Apr-21 22:00N 34°34' E 135°23'0 0.0
2018-Apr-21 21:30N 34°34' E 135°23'0 0.0
2018-Apr-21 21:00N 34°34' E 135°23'0 0.0
2018-Apr-21 20:30N 34°34' E 135°23'0 0.0
2018-Apr-21 20:00N 34°34' E 135°23'0 0.0
2018-Apr-21 19:30N 34°34' E 135°23'0 0.0
2018-Apr-21 19:00N 34°34' E 135°23'0 0.0
2018-Apr-21 18:30N 34°34' E 135°23'0 0.0
2018-Apr-21 17:59N 34°34' E 135°23'0 0.0
2018-Apr-21 17:30N 34°34' E 135°23'0 0.0
2018-Apr-21 17:00N 34°34' E 135°23'0 0.0
2018-Apr-21 16:30N 34°34' E 135°23'0 0.0
2018-Apr-21 16:00N 34°34' E 135°23'0 0.1
2018-Apr-21 15:30N 34°34' E 135°23'0 0.1
2018-Apr-21 15:00N 34°34' E 135°23'0 0.0
2018-Apr-21 14:30N 34°34' E 135°23'0 0.0
2018-Apr-21 14:00N 34°34' E 135°23'2 3.5
2018-Apr-21 13:30N 34°34' E 135°21'611.9
2018-Apr-21 13:01N 34°34' E 135°14'612.4
2018-Apr-21 12:30N 34°34' E 135°06'510.2
2018-Apr-21 12:00N 34°37' E 135°01'612.0
2018-Apr-21 11:30N 34°35' E 134°54'612.6
2018-Apr-21 11:00N 34°32' E 134°47'612.4
2018-Apr-21 10:30N 34°30' E 134°40'612.3
2018-Apr-21 10:00N 34°28' E 134°33'612.1
2018-Apr-21 09:30N 34°26' E 134°26'611.7
2018-Apr-21 09:00N 34°24' E 134°19'612.6
2018-Apr-21 08:30N 34°25' E 134°12'912.7
2018-Apr-21 07:45N 34°26' E 134°00'68 2.6
2018-Apr-20 05:16N 34°06' E 132°42'311.3
2018-Apr-20 05:01N 34°05' E 132°38'711.2
2018-Apr-20 04:26N 34°03' E 132°31'511.7
2018-Apr-20 03:59N 34°05' E 132°25'511.2
2018-Apr-20 03:30N 34°09' E 132°20'511.1
2018-Apr-20 03:00N 34°12' E 132°15'0 0.3
2018-Apr-20 02:30N 34°12' E 132°15'0 0.0
2018-Apr-20 02:00N 34°12' E 132°15'0 0.1
2018-Apr-20 01:30N 34°12' E 132°15'0 0.1
2018-Apr-20 01:01N 34°12' E 132°15'0 0.1
2018-Apr-20 00:30N 34°12' E 132°15'0 0.1
2018-Apr-20 00:00N 34°12' E 132°15'0 0.1
2018-Apr-19 23:30N 34°12' E 132°15'0 0.1
2018-Apr-19 23:00N 34°12' E 132°15'1 1.9
2018-Apr-19 22:30N 34°11' E 132°14'0 0.0
2018-Apr-19 21:59N 34°11' E 132°14'0 0.0
2018-Apr-19 21:30N 34°11' E 132°14'0 0.0
2018-Apr-19 21:00N 34°11' E 132°14'0 0.0
2018-Apr-19 20:30N 34°11' E 132°14'0 0.0
2018-Apr-19 20:00N 34°11' E 132°14'0 0.0
2018-Apr-19 19:30N 34°11' E 132°14'0 0.0
2018-Apr-19 19:00N 34°11' E 132°14'0 0.0
2018-Apr-19 18:30N 34°11' E 132°14'0 0.0
2018-Apr-19 17:58N 34°11' E 132°14'0 0.0
2018-Apr-19 17:31N 34°11' E 132°14'0 0.0
2018-Apr-19 16:59N 34°11' E 132°14'0 0.0
2018-Apr-19 16:30N 34°11' E 132°14'0 0.0
2018-Apr-19 16:00N 34°11' E 132°14'0 0.0
2018-Apr-19 15:30N 34°11' E 132°14'0 0.0
2018-Apr-19 15:00N 34°11' E 132°14'0 0.0
2018-Apr-19 14:29N 34°11' E 132°14'0 0.0
2018-Apr-19 14:00N 34°11' E 132°14'0 0.0
2018-Apr-19 13:30N 34°11' E 132°14'0 0.0
2018-Apr-19 13:00N 34°11' E 132°14'0 0.0
2018-Apr-19 12:30N 34°11' E 132°14'0 0.0
2018-Apr-19 11:58N 34°11' E 132°14'0 0.0
2018-Apr-19 11:30N 34°11' E 132°14'0 0.0
2018-Apr-19 11:00N 34°11' E 132°14'0 0.0
2018-Apr-19 10:30N 34°11' E 132°14'0 0.0
2018-Apr-19 10:00N 34°11' E 132°14'0 0.0
2018-Apr-19 09:30N 34°11' E 132°14'0 0.0
2018-Apr-19 09:00N 34°11' E 132°14'0 0.0
2018-Apr-19 08:30N 34°11' E 132°14'0 0.0
2018-Apr-19 08:00N 34°11' E 132°14'0 0.0
2018-Apr-19 07:30N 34°11' E 132°14'0 0.0
2018-Apr-19 07:00N 34°11' E 132°14'0 0.0
2018-Apr-19 06:30N 34°11' E 132°14'0 0.0
2018-Apr-19 05:59N 34°11' E 132°14'0 0.0
2018-Apr-19 05:31N 34°11' E 132°14'0 0.0
2018-Apr-19 04:59N 34°11' E 132°14'0 0.0
2018-Apr-19 04:29N 34°11' E 132°14'0 0.0
2018-Apr-19 03:58N 34°11' E 132°14'0 0.0
2018-Apr-19 03:30N 34°11' E 132°14'0 0.0
2018-Apr-19 03:00N 34°11' E 132°14'0 0.0
2018-Apr-19 02:30N 34°11' E 132°14'1 2.7
2018-Apr-19 02:00N 34°12' E 132°16'0 1.0
2018-Apr-19 01:30N 34°12' E 132°16'0 0.1
2018-Apr-19 01:00N 34°12' E 132°16'0 0.0
2018-Apr-19 00:30N 34°12' E 132°16'0 0.0
2018-Apr-19 00:01N 34°12' E 132°16'0 0.0
2018-Apr-18 23:30N 34°12' E 132°16'0 0.0
2018-Apr-18 22:59N 34°12' E 132°16'0 0.1
2018-Apr-18 22:30N 34°12' E 132°16'0 0.0
2018-Apr-18 22:00N 34°12' E 132°16'0 0.0
2018-Apr-18 21:30N 34°12' E 132°16'0 0.0
2018-Apr-18 21:00N 34°12' E 132°16'0 0.1
2018-Apr-18 20:30N 34°12' E 132°16'0 0.0
2018-Apr-18 19:59N 34°12' E 132°16'0 0.0
2018-Apr-18 19:30N 34°12' E 132°16'0 0.1
2018-Apr-18 19:00N 34°12' E 132°16'0 0.1
2018-Apr-18 18:30N 34°12' E 132°16'0 0.0
2018-Apr-18 18:00N 34°12' E 132°16'0 0.1
2018-Apr-18 17:30N 34°12' E 132°16'0 0.0
2018-Apr-18 17:00N 34°12' E 132°16'0 0.1
2018-Apr-18 16:30N 34°12' E 132°16'0 0.1
2018-Apr-18 16:00N 34°12' E 132°16'0 0.0
2018-Apr-18 15:30N 34°12' E 132°16'0 0.0
2018-Apr-18 15:01N 34°12' E 132°16'0 0.0
2018-Apr-18 14:30N 34°12' E 132°16'0 0.0
2018-Apr-18 14:00N 34°12' E 132°16'0 0.0
2018-Apr-18 13:30N 34°12' E 132°16'0 0.0
2018-Apr-18 13:00N 34°12' E 132°16'0 0.0
2018-Apr-18 12:30N 34°12' E 132°16'0 0.0
2018-Apr-18 12:00N 34°12' E 132°16'0 0.0
2018-Apr-18 11:30N 34°12' E 132°16'1 2.6
2018-Apr-18 11:01N 34°12' E 132°15'0 0.7
2018-Apr-18 10:30N 34°12' E 132°14'0 0.0
2018-Apr-18 10:00N 34°12' E 132°14'0 0.0
2018-Apr-18 09:30N 34°12' E 132°14'0 0.0
2018-Apr-18 08:58N 34°12' E 132°14'0 0.0
2018-Apr-18 08:27N 34°12' E 132°14'0 0.0
2018-Apr-18 07:59N 34°12' E 132°14'0 0.0
2018-Apr-18 07:30N 34°12' E 132°14'0 0.0
2018-Apr-18 07:00N 34°12' E 132°14'0 0.0
2018-Apr-18 06:29N 34°12' E 132°14'0 0.0
2018-Apr-18 06:00N 34°12' E 132°14'0 0.0
2018-Apr-18 05:30N 34°12' E 132°14'0 0.0
2018-Apr-18 05:00N 34°12' E 132°14'0 0.0
2018-Apr-18 04:30N 34°12' E 132°14'0 0.0
2018-Apr-18 04:00N 34°12' E 132°14'0 0.2
2018-Apr-18 03:31N 34°12' E 132°14'4 7.3
2018-Apr-18 03:00N 34°10' E 132°18'0 0.0
2018-Apr-18 02:30N 34°10' E 132°18'0 0.0
2018-Apr-18 02:00N 34°10' E 132°18'0 0.0
2018-Apr-18 01:30N 34°10' E 132°18'0 0.0
2018-Apr-18 01:00N 34°10' E 132°18'0 0.0
2018-Apr-18 00:30N 34°10' E 132°18'0 0.0
2018-Apr-18 00:00N 34°10' E 132°18'0 0.0
2018-Apr-17 23:29N 34°10' E 132°18'0 0.0
2018-Apr-17 23:00N 34°10' E 132°18'0 0.1
2018-Apr-17 22:30N 34°10' E 132°18'0 0.0
2018-Apr-17 22:00N 34°10' E 132°18'0 0.0
2018-Apr-17 21:29N 34°10' E 132°18'0 0.0
2018-Apr-17 21:00N 34°10' E 132°18'0 0.0
2018-Apr-17 20:30N 34°10' E 132°18'0 0.0
2018-Apr-17 19:59N 34°10' E 132°18'0 0.0
2018-Apr-17 19:29N 34°10' E 132°18'0 0.0
2018-Apr-17 19:00N 34°10' E 132°18'0 0.1
2018-Apr-17 18:29N 34°10' E 132°18'4 8.9
2018-Apr-17 18:00N 34°07' E 132°23'611.4
2018-Apr-17 17:29N 34°04' E 132°28'511.2
2018-Apr-17 17:00N 34°03' E 132°35'612.2
2018-Apr-17 16:30N 34°06' E 132°42'9110.2
2018-Apr-17 07:36N 34°19' E 134°30'111.4
2018-Apr-17 07:30N 34°18' E 134°31'611.1
2018-Apr-17 06:59N 34°16' E 134°37'4 8.8
2018-Apr-17 06:29N 34°12' E 134°40'5 8.3
2018-Apr-17 05:56N 34°08' E 134°43'4 9.7
2018-Apr-17 05:30N 34°05' E 134°47'510.0
2018-Apr-17 05:00N 34°01' E 134°51'510.0
2018-Apr-17 04:30N 33°58' E 134°55'5 9.9
2018-Apr-17 04:00N 33°54' E 134°59'5 9.5
2018-Apr-17 03:30N 33°51' E 135°03'165 9.6
2018-Apr-16 10:22N 34°32' E 138°15'2810.8
2018-Apr-16 07:49N 34°35' E 138°49'411.0
2018-Apr-16 07:27N 34°35' E 138°54'511.5
2018-Apr-16 07:00N 34°38' E 138°59'611.7
2018-Apr-16 06:28N 34°43' E 139°04'612.0
2018-Apr-16 05:55N 34°48' E 139°08'611.8
2018-Apr-16 05:25N 34°53' E 139°13'711.1
2018-Apr-16 04:49N 34°58' E 139°18'310.6
2018-Apr-16 04:30N 34°59' E 139°21'510.7
2018-Apr-16 04:00N 35°02' E 139°27'510.3
2018-Apr-16 03:30N 35°04' E 139°33'611.2
2018-Apr-16 03:00N 35°06' E 139°39'611.5
2018-Apr-16 02:29N 35°10' E 139°45'611.7
2018-Apr-16 02:00N 35°16' E 139°46'611.5
2018-Apr-16 01:30N 35°20' E 139°42'611.1
2018-Apr-16 01:00N 35°25' E 139°45'612.3
2018-Apr-16 00:30N 35°29' E 139°51'4 7.4
2018-Apr-16 00:00N 35°29' E 139°55'0 0.0
2018-Apr-15 23:30N 35°29' E 139°55'0 0.0
2018-Apr-15 23:00N 35°29' E 139°55'0 0.0
2018-Apr-15 22:30N 35°29' E 139°55'0 0.1
2018-Apr-15 22:00N 35°29' E 139°56'0 0.1
2018-Apr-15 21:30N 35°29' E 139°55'0 0.1
2018-Apr-15 21:00N 35°29' E 139°56'0 0.0
2018-Apr-15 20:28N 35°29' E 139°56'0 0.0
2018-Apr-15 20:00N 35°29' E 139°56'0 0.0
2018-Apr-15 19:30N 35°29' E 139°56'0 0.0
2018-Apr-15 18:59N 35°29' E 139°56'0 0.0
2018-Apr-15 18:30N 35°29' E 139°56'0 0.0
2018-Apr-15 18:00N 35°29' E 139°56'0 0.0
2018-Apr-15 17:30N 35°29' E 139°56'0 0.0
2018-Apr-15 17:00N 35°29' E 139°56'0 0.0
2018-Apr-15 16:30N 35°29' E 139°56'0 0.0
2018-Apr-15 16:00N 35°29' E 139°56'0 0.0
2018-Apr-15 15:30N 35°29' E 139°56'0 0.0
2018-Apr-15 15:01N 35°29' E 139°56'0 0.0
2018-Apr-15 14:30N 35°29' E 139°56'0 0.0
2018-Apr-15 14:00N 35°29' E 139°56'0 0.0
2018-Apr-15 13:30N 35°29' E 139°56'0 0.0
2018-Apr-15 13:00N 35°29' E 139°56'0 0.0
2018-Apr-15 12:30N 35°29' E 139°56'0 0.0
2018-Apr-15 12:00N 35°29' E 139°56'0 0.0
2018-Apr-15 11:30N 35°29' E 139°56'0 0.0
2018-Apr-15 11:00N 35°29' E 139°56'  

Dump ship's entire track history